KEMP/EMP METAR and TAF weather

Enter ICAO airport designator
Station Type Date Time Source
KEMP METAR 2020/07/10 14:53 UTC NOAA

KEMP 101453Z AUTO 14006KT 10SM CLR 24/19 A3006 RMK AO2 SLP169 T02440194 53006


Station Type Date Time Source
KEMP Decoded METAR 2020/07/10 14:53 UTC NOAA

EMPORIA MUNICIPAL AIRPORT, KS, United States (KEMP) 38-20N 96-12W 367M
Jul 10, 2020 - 10:53 AM EDT / 2020.07.10 1453 UTC
Wind: from the SE (140 degrees) at 7 MPH (6 KT):0
Visibility: 10 mile(s):0
Sky conditions: clear
Temperature: 75.9 F (24.4 C)
Dew Point: 66.9 F (19.4 C)
Relative Humidity: 73%
Pressure (altimeter): 30.06 in. Hg (1017 hPa)
Pressure tendency: 0.02 inches (0.6 hPa) higher than three hours ago
ob: KEMP 101453Z AUTO 14006KT 10SM CLR 24/19 A3006 RMK AO2 SLP169 T02440194 53006
cycle: 15

Station Type Date Time Source
KEMP TAF UTC NOAA

Error!

Example: see airport list